sensor_id;sensor_type;location;lat;lon;timestamp;pressure;altitude;pressure_sealevel;temperature;humidity
72855;BME280;60991;51.278;22.550;2023-04-27T00:00:42;99085.66;;;7.67;55.55
72855;BME280;60991;51.278;22.550;2023-04-27T00:02:12;99090.34;;;7.64;55.36
72855;BME280;60991;51.278;22.550;2023-04-27T00:03:42;99089.03;;;7.44;56.60
72855;BME280;60991;51.278;22.550;2023-04-27T00:05:12;99090.22;;;7.29;56.21
72855;BME280;60991;51.278;22.550;2023-04-27T00:06:42;99087.25;;;7.08;56.87
72855;BME280;60991;51.278;22.550;2023-04-27T00:08:13;99089.28;;;7.24;56.76
72855;BME280;60991;51.278;22.550;2023-04-27T00:09:43;99089.75;;;7.21;56.78
72855;BME280;60991;51.278;22.550;2023-04-27T00:11:13;99088.34;;;7.18;57.22
72855;BME280;60991;51.278;22.550;2023-04-27T00:12:43;99091.28;;;7.10;57.55
72855;BME280;60991;51.278;22.550;2023-04-27T00:14:14;99090.41;;;7.16;57.07
72855;BME280;60991;51.278;22.550;2023-04-27T00:15:44;99092.03;;;6.99;58.08
72855;BME280;60991;51.278;22.550;2023-04-27T00:17:14;99087.44;;;6.94;58.07
72855;BME280;60991;51.278;22.550;2023-04-27T00:18:44;99088.88;;;6.90;57.46
72855;BME280;60991;51.278;22.550;2023-04-27T00:20:14;99090.28;;;6.75;58.28
72855;BME280;60991;51.278;22.550;2023-04-27T00:21:45;99093.78;;;6.69;58.61
72855;BME280;60991;51.278;22.550;2023-04-27T00:23:15;99092.28;;;6.79;58.55
72855;BME280;60991;51.278;22.550;2023-04-27T00:24:45;99090.94;;;6.70;58.17
72855;BME280;60991;51.278;22.550;2023-04-27T00:26:16;99099.97;;;6.81;58.27
72855;BME280;60991;51.278;22.550;2023-04-27T00:27:46;99090.88;;;6.77;58.20
72855;BME280;60991;51.278;22.550;2023-04-27T00:29:16;99089.69;;;6.91;58.28
72855;BME280;60991;51.278;22.550;2023-04-27T00:30:46;99097.34;;;6.81;58.51
72855;BME280;60991;51.278;22.550;2023-04-27T00:32:16;99092.63;;;6.65;59.25
72855;BME280;60991;51.278;22.550;2023-04-27T00:33:47;99091.53;;;6.72;58.82
72855;BME280;60991;51.278;22.550;2023-04-27T00:35:17;99090.94;;;6.70;59.06
72855;BME280;60991;51.278;22.550;2023-04-27T00:36:47;99094.16;;;6.72;59.04
72855;BME280;60991;51.278;22.550;2023-04-27T00:38:17;99100.41;;;6.78;58.71
72855;BME280;60991;51.278;22.550;2023-04-27T00:39:47;99092.44;;;6.84;58.23
72855;BME280;60991;51.278;22.550;2023-04-27T00:41:18;99098.63;;;6.90;58.03
72855;BME280;60991;51.278;22.550;2023-04-27T00:42:48;99095.13;;;6.78;58.82
72855;BME280;60991;51.278;22.550;2023-04-27T00:44:25;99094.97;;;6.73;58.79
72855;BME280;60991;51.278;22.550;2023-04-27T00:45:56;99088.81;;;6.79;58.73
72855;BME280;60991;51.278;22.550;2023-04-27T00:47:28;99094.09;;;6.60;58.89
72855;BME280;60991;51.278;22.550;2023-04-27T00:48:59;99092.63;;;6.46;59.60
72855;BME280;60991;51.278;22.550;2023-04-27T00:50:30;99097.22;;;6.51;59.24
72855;BME280;60991;51.278;22.550;2023-04-27T00:52:00;99088.59;;;6.44;59.55
72855;BME280;60991;51.278;22.550;2023-04-27T00:53:31;99094.09;;;6.60;59.13
72855;BME280;60991;51.278;22.550;2023-04-27T00:55:02;99086.25;;;6.72;59.22
72855;BME280;60991;51.278;22.550;2023-04-27T00:56:32;99092.13;;;6.74;59.25
72855;BME280;60991;51.278;22.550;2023-04-27T00:58:03;99095.88;;;6.85;58.89
72855;BME280;60991;51.278;22.550;2023-04-27T00:59:33;99092.28;;;6.79;58.87
72855;BME280;60991;51.278;22.550;2023-04-27T01:01:03;99096.53;;;6.80;58.50
72855;BME280;60991;51.278;22.550;2023-04-27T01:02:34;99092.50;;;6.78;58.51
72855;BME280;60991;51.278;22.550;2023-04-27T01:04:04;99092.44;;;6.66;59.39
72855;BME280;60991;51.278;22.550;2023-04-27T01:05:36;99096.09;;;6.65;58.98
72855;BME280;60991;51.278;22.550;2023-04-27T01:07:06;99104.28;;;6.75;59.05
72855;BME280;60991;51.278;22.550;2023-04-27T01:08:36;99096.16;;;6.77;58.57
72855;BME280;60991;51.278;22.550;2023-04-27T01:10:07;99090.34;;;6.68;58.86
72855;BME280;60991;51.278;22.550;2023-04-27T01:11:37;99100.47;;;6.71;58.55
72855;BME280;60991;51.278;22.550;2023-04-27T01:13:08;99102.81;;;6.61;59.42
72855;BME280;60991;51.278;22.550;2023-04-27T01:14:38;99096.56;;;6.55;59.42
72855;BME280;60991;51.278;22.550;2023-04-27T01:16:08;99098.25;;;6.50;59.26
72855;BME280;60991;51.278;22.550;2023-04-27T01:17:38;99101.13;;;6.48;59.63
72855;BME280;60991;51.278;22.550;2023-04-27T01:19:09;99112.69;;;6.47;59.23
72855;BME280;60991;51.278;22.550;2023-04-27T01:20:39;99106.66;;;6.40;59.61
72855;BME280;60991;51.278;22.550;2023-04-27T01:22:09;99109.91;;;6.42;59.78
72855;BME280;60991;51.278;22.550;2023-04-27T01:23:39;99109.28;;;6.40;59.20
72855;BME280;60991;51.278;22.550;2023-04-27T01:25:09;99109.00;;;6.30;59.49
72855;BME280;60991;51.278;22.550;2023-04-27T01:26:40;99107.53;;;6.34;59.58
72855;BME280;60991;51.278;22.550;2023-04-27T01:28:10;99108.50;;;6.15;60.14
72855;BME280;60991;51.278;22.550;2023-04-27T01:29:40;99115.66;;;6.08;60.20
72855;BME280;60991;51.278;22.550;2023-04-27T01:31:11;99115.25;;;6.11;60.39
72855;BME280;60991;51.278;22.550;2023-04-27T01:32:41;99114.16;;;6.18;59.89
72855;BME280;60991;51.278;22.550;2023-04-27T01:34:11;99120.22;;;6.19;60.43
72855;BME280;60991;51.278;22.550;2023-04-27T01:35:42;99122.25;;;6.17;60.23
72855;BME280;60991;51.278;22.550;2023-04-27T01:37:12;99120.22;;;6.19;60.26
72855;BME280;60991;51.278;22.550;2023-04-27T01:38:42;99123.66;;;6.19;59.95
72855;BME280;60991;51.278;22.550;2023-04-27T01:40:13;99124.47;;;6.20;59.93
72855;BME280;60991;51.278;22.550;2023-04-27T01:41:43;99126.63;;;6.05;60.70
72855;BME280;60991;51.278;22.550;2023-04-27T01:43:13;99124.53;;;6.13;60.47
72855;BME280;60991;51.278;22.550;2023-04-27T01:44:44;99117.59;;;6.19;59.74
72855;BME280;60991;51.278;22.550;2023-04-27T01:46:14;99121.53;;;6.10;60.29
72855;BME280;60991;51.278;22.550;2023-04-27T01:47:44;99128.97;;;6.13;59.78
72855;BME280;60991;51.278;22.550;2023-04-27T01:49:14;99130.19;;;5.92;60.56
72855;BME280;60991;51.278;22.550;2023-04-27T01:50:44;99126.94;;;5.83;60.75
72855;BME280;60991;51.278;22.550;2023-04-27T01:52:14;99126.88;;;5.97;60.83
72855;BME280;60991;51.278;22.550;2023-04-27T01:53:45;99129.38;;;5.92;60.56
72855;BME280;60991;51.278;22.550;2023-04-27T01:55:15;99132.25;;;5.77;60.65
72855;BME280;60991;51.278;22.550;2023-04-27T01:56:45;99133.41;;;5.87;61.07
72855;BME280;60991;51.278;22.550;2023-04-27T01:58:15;99129.59;;;5.83;60.92
72855;BME280;60991;51.278;22.550;2023-04-27T01:59:46;99128.78;;;5.83;60.54
72855;BME280;60991;51.278;22.550;2023-04-27T02:01:16;99129.03;;;5.75;61.20
72855;BME280;60991;51.278;22.550;2023-04-27T02:02:46;99137.59;;;5.64;61.05
72855;BME280;60991;51.278;22.550;2023-04-27T02:04:16;99134.34;;;5.68;61.13
72855;BME280;60991;51.278;22.550;2023-04-27T02:05:46;99132.97;;;5.59;61.24
72855;BME280;60991;51.278;22.550;2023-04-27T02:07:17;99124.31;;;5.52;61.56
72855;BME280;60991;51.278;22.550;2023-04-27T02:08:47;99133.84;;;5.46;61.55
72855;BME280;60991;51.278;22.550;2023-04-27T02:10:17;99133.63;;;5.48;61.60
72855;BME280;60991;51.278;22.550;2023-04-27T02:11:47;99130.19;;;5.54;61.33
72855;BME280;60991;51.278;22.550;2023-04-27T02:13:17;99129.81;;;5.44;62.31
72855;BME280;60991;51.278;22.550;2023-04-27T02:14:48;99135.88;;;5.44;61.92
72855;BME280;60991;51.278;22.550;2023-04-27T02:16:18;99137.31;;;5.40;61.91
72855;BME280;60991;51.278;22.550;2023-04-27T02:17:48;99141.22;;;5.31;61.89
72855;BME280;60991;51.278;22.550;2023-04-27T02:19:18;99137.75;;;5.37;61.87
72855;BME280;60991;51.278;22.550;2023-04-27T02:20:48;99140.06;;;5.14;62.42
72855;BME280;60991;51.278;22.550;2023-04-27T02:22:19;99138.88;;;5.10;62.92
72855;BME280;60991;51.278;22.550;2023-04-27T02:23:49;99138.44;;;5.19;62.51
72855;BME280;60991;51.278;22.550;2023-04-27T02:25:19;99139.47;;;5.12;62.58
72855;BME280;60991;51.278;22.550;2023-04-27T02:26:50;99135.28;;;4.91;63.23
72855;BME280;60991;51.278;22.550;2023-04-27T02:28:20;99141.72;;;5.02;62.79
72855;BME280;60991;51.278;22.550;2023-04-27T02:29:50;99126.78;;;4.96;62.98
72855;BME280;60991;51.278;22.550;2023-04-27T02:31:21;99136.09;;;4.98;63.28
72855;BME280;60991;51.278;22.550;2023-04-27T02:32:51;99142.16;;;4.85;63.35
72855;BME280;60991;51.278;22.550;2023-04-27T02:34:21;99136.50;;;4.88;63.42
72855;BME280;60991;51.278;22.550;2023-04-27T02:35:51;99140.53;;;4.91;63.50
72855;BME280;60991;51.278;22.550;2023-04-27T02:37:21;99137.91;;;4.91;63.40
72855;BME280;60991;51.278;22.550;2023-04-27T02:38:52;99139.31;;;4.94;63.43
72855;BME280;60991;51.278;22.550;2023-04-27T02:40:22;99146.00;;;4.90;63.55
72855;BME280;60991;51.278;22.550;2023-04-27T02:41:52;99142.34;;;4.97;63.46
72855;BME280;60991;51.278;22.550;2023-04-27T02:43:22;99138.06;;;5.03;63.21
72855;BME280;60991;51.278;22.550;2023-04-27T02:44:53;99149.22;;;4.98;63.35
72855;BME280;60991;51.278;22.550;2023-04-27T02:46:23;99143.72;;;5.06;62.59
72855;BME280;60991;51.278;22.550;2023-04-27T02:47:53;99146.41;;;5.00;63.23
72855;BME280;60991;51.278;22.550;2023-04-27T02:49:23;99141.97;;;4.87;63.09
72855;BME280;60991;51.278;22.550;2023-04-27T02:50:54;99142.41;;;4.77;63.35
72855;BME280;60991;51.278;22.550;2023-04-27T02:52:24;99147.09;;;4.62;63.86
72855;BME280;60991;51.278;22.550;2023-04-27T02:53:54;99145.84;;;4.65;63.57
72855;BME280;60991;51.278;22.550;2023-04-27T02:55:24;99147.06;;;4.75;63.72
72855;BME280;60991;51.278;22.550;2023-04-27T02:56:54;99146.47;;;4.60;64.02
72855;BME280;60991;51.278;22.550;2023-04-27T02:58:25;99146.44;;;4.80;63.75
72855;BME280;60991;51.278;22.550;2023-04-27T02:59:55;99151.09;;;4.65;63.88
72855;BME280;60991;51.278;22.550;2023-04-27T03:01:25;99144.06;;;4.59;64.13
72855;BME280;60991;51.278;22.550;2023-04-27T03:02:55;99148.69;;;4.70;64.11
72855;BME280;60991;51.278;22.550;2023-04-27T03:04:25;99147.66;;;4.71;64.19
72855;BME280;60991;51.278;22.550;2023-04-27T03:05:56;99151.66;;;4.86;63.57
72855;BME280;60991;51.278;22.550;2023-04-27T03:07:26;99153.50;;;4.86;63.28
72855;BME280;60991;51.278;22.550;2023-04-27T03:08:56;99150.25;;;4.91;63.44
72855;BME280;60991;51.278;22.550;2023-04-27T03:10:26;99150.28;;;4.77;63.77
72855;BME280;60991;51.278;22.550;2023-04-27T03:11:56;99151.66;;;4.86;63.79
72855;BME280;60991;51.278;22.550;2023-04-27T03:13:27;99154.94;;;4.82;63.46
72855;BME280;60991;51.278;22.550;2023-04-27T03:14:57;99161.63;;;4.78;63.70
72855;BME280;60991;51.278;22.550;2023-04-27T03:16:27;99153.69;;;4.91;63.08
72855;BME280;60991;51.278;22.550;2023-04-27T03:17:57;99155.50;;;4.97;63.39
72855;BME280;60991;51.278;22.550;2023-04-27T03:19:28;99158.75;;;4.93;63.16
72855;BME280;60991;51.278;22.550;2023-04-27T03:21:08;99159.91;;;5.03;63.04
72855;BME280;60991;51.278;22.550;2023-04-27T03:22:39;99156.88;;;5.13;62.77
72855;BME280;60991;51.278;22.550;2023-04-27T03:24:09;99157.28;;;5.16;62.45
72855;BME280;60991;51.278;22.550;2023-04-27T03:25:39;99168.41;;;5.18;62.92
72855;BME280;60991;51.278;22.550;2023-04-27T03:27:09;99161.88;;;5.21;62.53
72855;BME280;60991;51.278;22.550;2023-04-27T03:28:40;99160.88;;;5.22;62.26
72855;BME280;60991;51.278;22.550;2023-04-27T03:30:11;99168.56;;;5.23;62.47
72855;BME280;60991;51.278;22.550;2023-04-27T03:31:41;99157.47;;;5.15;62.30
72855;BME280;60991;51.278;22.550;2023-04-27T03:33:11;99162.31;;;5.18;62.34
72855;BME280;60991;51.278;22.550;2023-04-27T03:34:41;99166.94;;;5.22;62.44
72855;BME280;60991;51.278;22.550;2023-04-27T03:36:11;99167.16;;;5.21;62.39
72855;BME280;60991;51.278;22.550;2023-04-27T03:37:42;99171.44;;;5.15;62.06
72855;BME280;60991;51.278;22.550;2023-04-27T03:39:12;99168.97;;;5.20;62.17
72855;BME280;60991;51.278;22.550;2023-04-27T03:40:42;99171.47;;;5.02;62.60
72855;BME280;60991;51.278;22.550;2023-04-27T03:42:12;99176.72;;;5.09;62.51
72855;BME280;60991;51.278;22.550;2023-04-27T03:43:43;99172.47;;;5.08;62.89
72855;BME280;60991;51.278;22.550;2023-04-27T03:45:13;99173.88;;;5.10;63.15
72855;BME280;60991;51.278;22.550;2023-04-27T03:46:43;99182.59;;;5.04;62.95
72855;BME280;60991;51.278;22.550;2023-04-27T03:48:13;99179.19;;;4.97;63.00
72855;BME280;60991;51.278;22.550;2023-04-27T03:49:44;99183.22;;;5.00;63.24
72855;BME280;60991;51.278;22.550;2023-04-27T03:51:14;99183.63;;;4.97;62.72
72855;BME280;60991;51.278;22.550;2023-04-27T03:52:44;99182.03;;;4.76;63.27
72855;BME280;60991;51.278;22.550;2023-04-27T03:54:14;99181.63;;;4.66;64.09
72855;BME280;60991;51.278;22.550;2023-04-27T03:55:45;99184.50;;;4.58;64.39
72855;BME280;60991;51.278;22.550;2023-04-27T03:57:15;99189.53;;;4.72;64.15
72855;BME280;60991;51.278;22.550;2023-04-27T03:58:45;99193.19;;;4.78;63.54
72855;BME280;60991;51.278;22.550;2023-04-27T04:00:15;99186.25;;;4.83;63.84
72855;BME280;60991;51.278;22.550;2023-04-27T04:01:46;99190.94;;;4.75;63.77
72855;BME280;60991;51.278;22.550;2023-04-27T04:03:16;99189.13;;;4.75;63.89
72855;BME280;60991;51.278;22.550;2023-04-27T04:04:46;99198.03;;;4.81;63.88
72855;BME280;60991;51.278;22.550;2023-04-27T04:06:16;99203.25;;;4.87;64.17
72855;BME280;60991;51.278;22.550;2023-04-27T04:07:46;99202.28;;;4.75;63.74
72855;BME280;60991;51.278;22.550;2023-04-27T04:09:17;99203.25;;;4.87;63.94
72855;BME280;60991;51.278;22.550;2023-04-27T04:10:47;99204.47;;;4.92;63.62
72855;BME280;60991;51.278;22.550;2023-04-27T04:12:17;99214.56;;;5.01;63.78
72855;BME280;60991;51.278;22.550;2023-04-27T04:13:47;99209.50;;;5.06;63.55
72855;BME280;60991;51.278;22.550;2023-04-27T04:15:18;99208.69;;;5.06;63.64
72855;BME280;60991;51.278;22.550;2023-04-27T04:16:48;99206.06;;;5.06;63.62
72855;BME280;60991;51.278;22.550;2023-04-27T04:18:18;99212.31;;;5.11;63.31
72855;BME280;60991;51.278;22.550;2023-04-27T04:19:48;99213.38;;;4.97;63.85
72855;BME280;60991;51.278;22.550;2023-04-27T04:21:19;99217.38;;;5.06;63.71
72855;BME280;60991;51.278;22.550;2023-04-27T04:22:49;99215.75;;;5.12;63.43
72855;BME280;60991;51.278;22.550;2023-04-27T04:24:19;99206.66;;;5.14;63.41
72855;BME280;60991;51.278;22.550;2023-04-27T04:25:49;99215.13;;;5.23;63.28
72855;BME280;60991;51.278;22.550;2023-04-27T04:27:20;99215.72;;;5.25;63.32
72855;BME280;60991;51.278;22.550;2023-04-27T04:28:50;99218.75;;;5.22;63.24
72855;BME280;60991;51.278;22.550;2023-04-27T04:30:20;99224.47;;;5.19;63.44
72855;BME280;60991;51.278;22.550;2023-04-27T04:31:50;99216.97;;;5.09;63.66
72855;BME280;60991;51.278;22.550;2023-04-27T04:33:21;99217.59;;;5.05;63.97
72855;BME280;60991;51.278;22.550;2023-04-27T04:34:51;99224.28;;;5.07;63.97
72855;BME280;60991;51.278;22.550;2023-04-27T04:36:21;99225.28;;;5.19;63.52
72855;BME280;60991;51.278;22.550;2023-04-27T04:37:51;99228.31;;;5.16;63.34
72855;BME280;60991;51.278;22.550;2023-04-27T04:39:22;99228.72;;;5.13;63.90
72855;BME280;60991;51.278;22.550;2023-04-27T04:40:52;99220.84;;;5.00;64.17
72855;BME280;60991;51.278;22.550;2023-04-27T04:42:22;99237.03;;;4.91;64.31
72855;BME280;60991;51.278;22.550;2023-04-27T04:43:52;99229.75;;;4.99;63.76
72855;BME280;60991;51.278;22.550;2023-04-27T04:45:23;99236.81;;;5.18;63.71
72855;BME280;60991;51.278;22.550;2023-04-27T04:46:53;99241.47;;;5.03;64.58
72855;BME280;60991;51.278;22.550;2023-04-27T04:48:23;99242.91;;;4.99;64.30
72855;BME280;60991;51.278;22.550;2023-04-27T04:49:53;99244.09;;;5.03;64.28
72855;BME280;60991;51.278;22.550;2023-04-27T04:51:24;99240.88;;;5.08;64.09
72855;BME280;60991;51.278;22.550;2023-04-27T04:52:54;99247.13;;;5.13;64.16
72855;BME280;60991;51.278;22.550;2023-04-27T04:54:24;99246.69;;;5.30;63.68
72855;BME280;60991;51.278;22.550;2023-04-27T04:55:54;99248.34;;;5.17;63.87
72855;BME280;60991;51.278;22.550;2023-04-27T04:57:24;99247.34;;;5.12;64.36
72855;BME280;60991;51.278;22.550;2023-04-27T04:58:55;99246.53;;;5.18;63.85
72855;BME280;60991;51.278;22.550;2023-04-27T05:00:25;99258.63;;;5.26;63.93
72855;BME280;60991;51.278;22.550;2023-04-27T05:01:55;99254.53;;;5.43;63.44
72855;BME280;60991;51.278;22.550;2023-04-27T05:03:25;99256.16;;;5.50;63.29
72855;BME280;60991;51.278;22.550;2023-04-27T05:04:56;99248.09;;;5.26;63.39
72855;BME280;60991;51.278;22.550;2023-04-27T05:06:26;99258.63;;;5.32;63.37
72855;BME280;60991;51.278;22.550;2023-04-27T05:07:56;99262.47;;;5.36;63.53
72855;BME280;60991;51.278;22.550;2023-04-27T05:09:26;99259.78;;;5.56;62.95
72855;BME280;60991;51.278;22.550;2023-04-27T05:10:57;99260.94;;;5.67;62.75
72855;BME280;60991;51.278;22.550;2023-04-27T05:12:27;99259.31;;;5.72;62.16
72855;BME280;60991;51.278;22.550;2023-04-27T05:13:57;99255.34;;;5.43;63.15
72855;BME280;60991;51.278;22.550;2023-04-27T05:15:27;99257.22;;;5.30;62.96
72855;BME280;60991;51.278;22.550;2023-04-27T05:16:58;99265.53;;;5.20;62.96
72855;BME280;60991;51.278;22.550;2023-04-27T05:18:28;99266.97;;;5.16;63.56
72855;BME280;60991;51.278;22.550;2023-04-27T05:19:58;99260.28;;;5.07;63.68
72855;BME280;60991;51.278;22.550;2023-04-27T05:21:28;99267.16;;;5.14;63.67
72855;BME280;60991;51.278;22.550;2023-04-27T05:22:58;99273.63;;;5.32;63.36
72855;BME280;60991;51.278;22.550;2023-04-27T05:24:29;99268.34;;;5.32;63.25
72855;BME280;60991;51.278;22.550;2023-04-27T05:25:59;99269.13;;;5.45;63.31
72855;BME280;60991;51.278;22.550;2023-04-27T05:27:29;99267.84;;;5.68;62.17
72855;BME280;60991;51.278;22.550;2023-04-27T05:28:59;99263.34;;;5.75;62.35
72855;BME280;60991;51.278;22.550;2023-04-27T05:30:29;99265.34;;;5.79;62.54
72855;BME280;60991;51.278;22.550;2023-04-27T05:32:00;99273.59;;;5.96;61.78
72855;BME280;60991;51.278;22.550;2023-04-27T05:33:30;99279.03;;;6.08;61.81
72855;BME280;60991;51.278;22.550;2023-04-27T05:35:00;99279.44;;;6.11;61.70
72855;BME280;60991;51.278;22.550;2023-04-27T05:36:30;99280.78;;;6.20;61.48
72855;BME280;60991;51.278;22.550;2023-04-27T05:38:01;99282.78;;;6.25;60.82
72855;BME280;60991;51.278;22.550;2023-04-27T05:39:31;99282.38;;;6.28;60.64
72855;BME280;60991;51.278;22.550;2023-04-27T05:41:01;99283.78;;;6.31;61.15
72855;BME280;60991;51.278;22.550;2023-04-27T05:42:31;99288.31;;;6.17;61.63
72855;BME280;60991;51.278;22.550;2023-04-27T05:44:01;99285.94;;;6.40;60.79
72855;BME280;60991;51.278;22.550;2023-04-27T05:45:32;99297.25;;;6.47;60.36
72855;BME280;60991;51.278;22.550;2023-04-27T05:47:02;99292.13;;;6.52;59.56
72855;BME280;60991;51.278;22.550;2023-04-27T05:48:32;99288.97;;;6.69;59.69
72855;BME280;60991;51.278;22.550;2023-04-27T05:50:02;99292.06;;;6.66;59.83
72855;BME280;60991;51.278;22.550;2023-04-27T05:51:33;99296.97;;;6.62;59.26
72855;BME280;60991;51.278;22.550;2023-04-27T05:53:03;99306.00;;;6.41;59.27
72855;BME280;60991;51.278;22.550;2023-04-27T05:54:33;99300.38;;;6.31;60.10
72855;BME280;60991;51.278;22.550;2023-04-27T05:56:04;99298.19;;;6.28;60.30
72855;BME280;60991;51.278;22.550;2023-04-27T05:57:34;99304.97;;;6.49;59.53
72855;BME280;60991;51.278;22.550;2023-04-27T05:59:04;99300.72;;;6.48;59.44
72855;BME280;60991;51.278;22.550;2023-04-27T06:00:35;99306.31;;;6.58;59.17
72855;BME280;60991;51.278;22.550;2023-04-27T06:02:05;99307.41;;;6.44;59.22
72855;BME280;60991;51.278;22.550;2023-04-27T06:03:35;99309.03;;;6.45;59.82
72855;BME280;60991;51.278;22.550;2023-04-27T06:05:06;99310.94;;;6.63;59.40
72855;BME280;60991;51.278;22.550;2023-04-27T06:06:36;99312.63;;;6.82;58.84
72855;BME280;60991;51.278;22.550;2023-04-27T06:08:06;99312.22;;;6.85;58.48
72855;BME280;60991;51.278;22.550;2023-04-27T06:09:37;99310.28;;;6.99;58.30
72855;BME280;60991;51.278;22.550;2023-04-27T06:11:07;99322.31;;;7.13;58.10
72855;BME280;60991;51.278;22.550;2023-04-27T06:12:37;99306.00;;;7.22;57.30
72855;BME280;60991;51.278;22.550;2023-04-27T06:14:08;99307.75;;;7.28;57.76
72855;BME280;60991;51.278;22.550;2023-04-27T06:15:38;99315.81;;;7.15;55.09
72855;BME280;60991;51.278;22.550;2023-04-27T06:17:08;99310.38;;;7.10;54.87
72855;BME280;60991;51.278;22.550;2023-04-27T06:18:38;99319.38;;;7.03;54.92
72855;BME280;60991;51.278;22.550;2023-04-27T06:20:09;99315.34;;;7.00;54.66
72855;BME280;60991;51.278;22.550;2023-04-27T06:21:39;99318.88;;;6.87;54.29
72855;BME280;60991;51.278;22.550;2023-04-27T06:23:09;99326.50;;;7.02;53.83
72855;BME280;60991;51.278;22.550;2023-04-27T06:24:39;99322.66;;;6.98;53.72
72855;BME280;60991;51.278;22.550;2023-04-27T06:26:10;99325.13;;;6.93;54.13
72855;BME280;60991;51.278;22.550;2023-04-27T06:27:40;99321.97;;;6.84;55.03
72855;BME280;60991;51.278;22.550;2023-04-27T06:29:10;99323.78;;;6.84;55.64
72855;BME280;60991;51.278;22.550;2023-04-27T06:30:40;99329.66;;;7.11;54.97
72855;BME280;60991;51.278;22.550;2023-04-27T06:32:11;99327.91;;;7.05;54.94
72855;BME280;60991;51.278;22.550;2023-04-27T06:33:41;99323.84;;;7.02;55.02
72855;BME280;60991;51.278;22.550;2023-04-27T06:35:11;99328.38;;;7.20;54.48
72855;BME280;60991;51.278;22.550;2023-04-27T06:36:41;99325.66;;;7.26;54.08
72855;BME280;60991;51.278;22.550;2023-04-27T06:38:11;99322.06;;;7.21;52.78
72855;BME280;60991;51.278;22.550;2023-04-27T06:39:43;99327.06;;;7.29;52.66
72855;BME280;60991;51.278;22.550;2023-04-27T06:41:13;99313.25;;;7.27;52.85
72855;BME280;60991;51.278;22.550;2023-04-27T06:42:43;99320.84;;;7.42;52.29
72855;BME280;60991;51.278;22.550;2023-04-27T06:44:13;99318.13;;;7.48;52.18
72855;BME280;60991;51.278;22.550;2023-04-27T06:45:43;99324.81;;;7.69;51.79
72855;BME280;60991;51.278;22.550;2023-04-27T06:47:14;99321.09;;;7.77;51.02
72855;BME280;60991;51.278;22.550;2023-04-27T06:48:44;99316.91;;;7.69;52.00
72855;BME280;60991;51.278;22.550;2023-04-27T06:50:14;99332.59;;;7.82;52.20
72855;BME280;60991;51.278;22.550;2023-04-27T06:51:44;99330.91;;;7.88;51.17
72855;BME280;60991;51.278;22.550;2023-04-27T06:53:15;99329.66;;;7.90;50.62
72855;BME280;60991;51.278;22.550;2023-04-27T06:54:45;99327.06;;;8.02;50.63
72855;BME280;60991;51.278;22.550;2023-04-27T06:56:15;99322.38;;;8.04;49.58
72855;BME280;60991;51.278;22.550;2023-04-27T06:57:45;99327.81;;;8.09;49.71
72855;BME280;60991;51.278;22.550;2023-04-27T06:59:15;99321.66;;;8.15;49.32
72855;BME280;60991;51.278;22.550;2023-04-27T07:00:46;99329.03;;;8.25;49.66
72855;BME280;60991;51.278;22.550;2023-04-27T07:02:16;99331.69;;;8.25;49.13
72855;BME280;60991;51.278;22.550;2023-04-27T07:03:46;99326.97;;;8.27;48.91
72855;BME280;60991;51.278;22.550;2023-04-27T07:05:16;99322.28;;;8.29;48.85
72855;BME280;60991;51.278;22.550;2023-04-27T07:06:46;99329.09;;;8.37;49.14
72855;BME280;60991;51.278;22.550;2023-04-27T07:08:17;99326.69;;;8.17;48.99
72855;BME280;60991;51.278;22.550;2023-04-27T07:09:47;99330.59;;;8.14;49.45
72855;BME280;60991;51.278;22.550;2023-04-27T07:11:17;99327.78;;;8.27;48.87
72855;BME280;60991;51.278;22.550;2023-04-27T07:12:48;99330.44;;;8.27;48.62
72855;BME280;60991;51.278;22.550;2023-04-27T07:14:18;99330.88;;;8.24;48.15
72855;BME280;60991;51.278;22.550;2023-04-27T07:15:53;99334.88;;;8.33;48.09
72855;BME280;60991;51.278;22.550;2023-04-27T07:17:24;99330.78;;;8.49;47.81
72855;BME280;60991;51.278;22.550;2023-04-27T07:18:54;99330.41;;;8.46;46.95
72855;BME280;60991;51.278;22.550;2023-04-27T07:20:24;99335.47;;;8.47;48.21
72855;BME280;60991;51.278;22.550;2023-04-27T07:21:54;99335.38;;;8.54;48.22
72855;BME280;60991;51.278;22.550;2023-04-27T07:23:24;99337.78;;;8.55;47.75
72855;BME280;60991;51.278;22.550;2023-04-27T07:24:55;99343.56;;;8.52;47.95
72855;BME280;60991;51.278;22.550;2023-04-27T07:26:25;99338.97;;;8.59;48.04
72855;BME280;60991;51.278;22.550;2023-04-27T07:27:55;99337.00;;;8.55;47.24
72855;BME280;60991;51.278;22.550;2023-04-27T07:29:25;99338.75;;;8.61;47.23
72855;BME280;60991;51.278;22.550;2023-04-27T07:30:55;99340.44;;;8.55;46.04
72855;BME280;60991;51.278;22.550;2023-04-27T07:32:26;99346.81;;;8.66;46.67
72855;BME280;60991;51.278;22.550;2023-04-27T07:33:56;99339.47;;;8.68;46.29
72855;BME280;60991;51.278;22.550;2023-04-27T07:35:26;99336.81;;;8.68;46.12
72855;BME280;60991;51.278;22.550;2023-04-27T07:36:57;99339.03;;;8.71;46.75
72855;BME280;60991;51.278;22.550;2023-04-27T07:38:27;99344.06;;;8.73;46.13
72855;BME280;60991;51.278;22.550;2023-04-27T07:39:57;99338.75;;;8.73;46.83
72855;BME280;60991;51.278;22.550;2023-04-27T07:41:27;99340.38;;;8.74;45.42
72855;BME280;60991;51.278;22.550;2023-04-27T07:42:57;99344.31;;;8.71;45.39
72855;BME280;60991;51.278;22.550;2023-04-27T07:44:28;99343.63;;;8.76;46.04
72855;BME280;60991;51.278;22.550;2023-04-27T07:45:58;99351.91;;;8.79;46.56
72855;BME280;60991;51.278;22.550;2023-04-27T07:47:28;99340.44;;;8.85;46.76
72855;BME280;60991;51.278;22.550;2023-04-27T07:48:58;99344.34;;;8.94;46.86
72855;BME280;60991;51.278;22.550;2023-04-27T07:50:29;99342.97;;;8.92;46.63
72855;BME280;60991;51.278;22.550;2023-04-27T07:51:59;99343.66;;;8.99;46.61
72855;BME280;60991;51.278;22.550;2023-04-27T07:53:30;99339.75;;;9.01;47.02
72855;BME280;60991;51.278;22.550;2023-04-27T07:55:00;99346.56;;;9.09;46.87
72855;BME280;60991;51.278;22.550;2023-04-27T07:56:31;99352.91;;;9.08;46.15
72855;BME280;60991;51.278;22.550;2023-04-27T07:58:01;99348.16;;;9.10;46.09